sensor_id;sensor_type;location;lat;lon;timestamp;pressure;altitude;pressure_sealevel;temperature;humidity
71165;BME280;58859;55.132;-1.586;2023-07-09T00:02:18;101253.78;;;21.48;100.00
71165;BME280;58859;55.132;-1.586;2023-07-09T00:04:44;101244.63;;;21.44;100.00
71165;BME280;58859;55.132;-1.586;2023-07-09T00:07:30;101242.19;;;22.32;100.00
71165;BME280;58859;55.132;-1.586;2023-07-09T00:09:57;101241.22;;;22.14;100.00
71165;BME280;58859;55.132;-1.586;2023-07-09T00:12:23;101244.00;;;22.76;100.00
71165;BME280;58859;55.132;-1.586;2023-07-09T00:14:49;101243.72;;;22.91;100.00
71165;BME280;58859;55.132;-1.586;2023-07-09T00:17:31;101245.84;;;21.08;100.00
71165;BME280;58859;55.132;-1.586;2023-07-09T00:19:59;101253.13;;;22.43;100.00
71165;BME280;58859;55.132;-1.586;2023-07-09T00:22:24;101264.31;;;21.81;100.00
71165;BME280;58859;55.132;-1.586;2023-07-09T00:24:52;101273.31;;;20.47;100.00
71165;BME280;58859;55.132;-1.586;2023-07-09T00:27:23;101271.03;;;22.03;100.00
71165;BME280;58859;55.132;-1.586;2023-07-09T00:29:51;101281.19;;;21.01;100.00
71165;BME280;58859;55.132;-1.586;2023-07-09T00:32:19;101269.25;;;20.44;100.00
71165;BME280;58859;55.132;-1.586;2023-07-09T00:34:51;101274.28;;;19.98;100.00
71165;BME280;58859;55.132;-1.586;2023-07-09T00:37:18;101282.41;;;20.92;100.00
71165;BME280;58859;55.132;-1.586;2023-07-09T00:39:45;101296.25;;;20.94;100.00
71165;BME280;58859;55.132;-1.586;2023-07-09T00:42:16;101284.28;;;20.03;100.00
71165;BME280;58859;55.132;-1.586;2023-07-09T00:44:54;101285.75;;;18.72;100.00
71165;BME280;58859;55.132;-1.586;2023-07-09T00:50:00;101261.94;;;20.05;100.00
71165;BME280;58859;55.132;-1.586;2023-07-09T00:52:36;101259.72;;;19.47;100.00
71165;BME280;58859;55.132;-1.586;2023-07-09T00:55:08;101239.63;;;19.46;100.00
71165;BME280;58859;55.132;-1.586;2023-07-09T00:57:38;101231.53;;;19.82;100.00
71165;BME280;58859;55.132;-1.586;2023-07-09T01:00:09;101222.38;;;19.78;100.00
71165;BME280;58859;55.132;-1.586;2023-07-09T01:02:39;101211.56;;;19.73;100.00
71165;BME280;58859;55.132;-1.586;2023-07-09T01:05:09;101202.69;;;19.46;100.00
71165;BME280;58859;55.132;-1.586;2023-07-09T01:07:36;101207.69;;;20.57;100.00
71165;BME280;58859;55.132;-1.586;2023-07-09T01:10:02;101204.50;;;20.21;100.00
71165;BME280;58859;55.132;-1.586;2023-07-09T01:12:27;101195.59;;;19.81;100.00
71165;BME280;58859;55.132;-1.586;2023-07-09T01:14:56;101198.91;;;19.96;100.00
71165;BME280;58859;55.132;-1.586;2023-07-09T01:17:25;101202.50;;;19.82;100.00
71165;BME280;58859;55.132;-1.586;2023-07-09T01:19:53;101210.97;;;20.12;100.00
71165;BME280;58859;55.132;-1.586;2023-07-09T01:22:20;101211.38;;;20.76;100.00
71165;BME280;58859;55.132;-1.586;2023-07-09T01:24:51;101208.06;;;20.00;100.00
71165;BME280;58859;55.132;-1.586;2023-07-09T01:27:19;101199.25;;;19.80;100.00
71165;BME280;58859;55.132;-1.586;2023-07-09T01:29:45;101209.78;;;20.94;100.00
71165;BME280;58859;55.132;-1.586;2023-07-09T01:32:18;101214.84;;;20.76;100.00
71165;BME280;58859;55.132;-1.586;2023-07-09T01:34:46;101205.78;;;19.28;100.00
71165;BME280;58859;55.132;-1.586;2023-07-09T01:37:17;101206.22;;;19.32;100.00
71165;BME280;58859;55.132;-1.586;2023-07-09T01:39:43;101205.06;;;20.63;100.00
71165;BME280;58859;55.132;-1.586;2023-07-09T01:42:09;101207.41;;;21.26;100.00
71165;BME280;58859;55.132;-1.586;2023-07-09T01:44:36;101196.06;;;20.32;100.00
71165;BME280;58859;55.132;-1.586;2023-07-09T01:47:04;101196.66;;;19.86;100.00
71165;BME280;58859;55.132;-1.586;2023-07-09T01:49:30;101189.06;;;20.24;100.00
71165;BME280;58859;55.132;-1.586;2023-07-09T01:51:58;101181.88;;;19.36;100.00
71165;BME280;58859;55.132;-1.586;2023-07-09T01:54:27;101173.63;;;18.69;100.00
71165;BME280;58859;55.132;-1.586;2023-07-09T01:56:52;101171.19;;;19.72;100.00
71165;BME280;58859;55.132;-1.586;2023-07-09T01:59:22;101172.53;;;20.63;100.00
71165;BME280;58859;55.132;-1.586;2023-07-09T02:01:47;101173.44;;;20.23;100.00
71165;BME280;58859;55.132;-1.586;2023-07-09T02:04:13;101174.53;;;20.48;100.00
71165;BME280;58859;55.132;-1.586;2023-07-09T02:06:38;101173.59;;;19.12;100.00
71165;BME280;58859;55.132;-1.586;2023-07-09T02:09:03;101160.47;;;19.46;100.00
71165;BME280;58859;55.132;-1.586;2023-07-09T02:11:29;101170.53;;;19.70;100.00
71165;BME280;58859;55.132;-1.586;2023-07-09T02:13:54;101157.03;;;19.24;100.00
71165;BME280;58859;55.132;-1.586;2023-07-09T02:16:19;101164.38;;;19.57;100.00
71165;BME280;58859;55.132;-1.586;2023-07-09T02:18:45;101172.97;;;20.93;100.00
71165;BME280;58859;55.132;-1.586;2023-07-09T02:21:10;101172.47;;;19.27;100.00
71165;BME280;58859;55.132;-1.586;2023-07-09T02:23:36;101156.56;;;18.86;100.00
71165;BME280;58859;55.132;-1.586;2023-07-09T02:26:01;101167.91;;;19.70;100.00
71165;BME280;58859;55.132;-1.586;2023-07-09T02:28:26;101148.97;;;20.88;100.00
71165;BME280;58859;55.132;-1.586;2023-07-09T02:30:53;101155.47;;;21.18;100.00
71165;BME280;58859;55.132;-1.586;2023-07-09T02:33:18;101157.50;;;21.42;100.00
71165;BME280;58859;55.132;-1.586;2023-07-09T02:35:45;101166.47;;;20.82;100.00
71165;BME280;58859;55.132;-1.586;2023-07-09T02:38:11;101165.81;;;19.59;100.00
71165;BME280;58859;55.132;-1.586;2023-07-09T02:40:36;101165.41;;;21.49;100.00
71165;BME280;58859;55.132;-1.586;2023-07-09T02:43:01;101178.28;;;21.19;100.00
71165;BME280;58859;55.132;-1.586;2023-07-09T02:45:27;101175.28;;;21.99;100.00
71165;BME280;58859;55.132;-1.586;2023-07-09T02:47:52;101170.81;;;22.31;100.00
71165;BME280;58859;55.132;-1.586;2023-07-09T02:50:17;101186.72;;;22.31;100.00
71165;BME280;58859;55.132;-1.586;2023-07-09T02:52:43;101183.91;;;22.57;100.00
71165;BME280;58859;55.132;-1.586;2023-07-09T02:55:09;101179.69;;;22.50;100.00
71165;BME280;58859;55.132;-1.586;2023-07-09T02:57:35;101178.75;;;21.87;100.00
71165;BME280;58859;55.132;-1.586;2023-07-09T03:00:00;101173.00;;;21.26;100.00
71165;BME280;58859;55.132;-1.586;2023-07-09T03:02:32;101162.50;;;21.76;100.00
71165;BME280;58859;55.132;-1.586;2023-07-09T03:04:57;101164.88;;;21.91;100.00
71165;BME280;58859;55.132;-1.586;2023-07-09T03:07:23;101163.50;;;22.26;100.00
71165;BME280;58859;55.132;-1.586;2023-07-09T03:09:48;101170.16;;;21.07;100.00
71165;BME280;58859;55.132;-1.586;2023-07-09T03:12:13;101156.63;;;21.61;100.00
71165;BME280;58859;55.132;-1.586;2023-07-09T03:14:39;101152.94;;;22.20;100.00
71165;BME280;58859;55.132;-1.586;2023-07-09T03:17:04;101155.03;;;22.11;100.00
71165;BME280;58859;55.132;-1.586;2023-07-09T03:19:30;101146.97;;;22.31;100.00
71165;BME280;58859;55.132;-1.586;2023-07-09T03:21:55;101148.34;;;22.71;100.00
71165;BME280;58859;55.132;-1.586;2023-07-09T03:24:20;101156.25;;;22.47;100.00
71165;BME280;58859;55.132;-1.586;2023-07-09T03:26:46;101147.53;;;22.71;100.00
71165;BME280;58859;55.132;-1.586;2023-07-09T03:29:12;101155.16;;;21.78;100.00
71165;BME280;58859;55.132;-1.586;2023-07-09T03:31:38;101157.66;;;22.49;100.00
71165;BME280;58859;55.132;-1.586;2023-07-09T03:34:03;101147.28;;;22.10;100.00
71165;BME280;58859;55.132;-1.586;2023-07-09T03:36:28;101142.47;;;22.63;100.00
71165;BME280;58859;55.132;-1.586;2023-07-09T03:38:54;101149.47;;;22.19;100.00
71165;BME280;58859;55.132;-1.586;2023-07-09T03:41:20;101149.59;;;21.23;100.00
71165;BME280;58859;55.132;-1.586;2023-07-09T03:43:45;101150.19;;;22.02;100.00
71165;BME280;58859;55.132;-1.586;2023-07-09T03:46:11;101148.47;;;22.20;100.00
71165;BME280;58859;55.132;-1.586;2023-07-09T03:48:37;101153.22;;;22.43;100.00
71165;BME280;58859;55.132;-1.586;2023-07-09T03:51:02;101160.44;;;22.61;100.00
71165;BME280;58859;55.132;-1.586;2023-07-09T03:53:28;101160.06;;;22.57;100.00
71165;BME280;58859;55.132;-1.586;2023-07-09T03:55:54;101168.41;;;22.67;100.00
71165;BME280;58859;55.132;-1.586;2023-07-09T03:58:20;101168.56;;;22.34;100.00
71165;BME280;58859;55.132;-1.586;2023-07-09T04:00:46;101164.56;;;20.37;100.00
71165;BME280;58859;55.132;-1.586;2023-07-09T04:03:11;101181.66;;;20.60;100.00
71165;BME280;58859;55.132;-1.586;2023-07-09T04:05:37;101177.63;;;20.71;100.00
71165;BME280;58859;55.132;-1.586;2023-07-09T04:08:03;101194.50;;;20.70;100.00
71165;BME280;58859;55.132;-1.586;2023-07-09T04:10:29;101196.38;;;21.15;100.00
71165;BME280;58859;55.132;-1.586;2023-07-09T04:12:55;101198.34;;;20.61;100.00
71165;BME280;58859;55.132;-1.586;2023-07-09T04:15:20;101194.34;;;19.77;100.00
71165;BME280;58859;55.132;-1.586;2023-07-09T04:17:46;101193.69;;;20.16;100.00
71165;BME280;58859;55.132;-1.586;2023-07-09T04:20:11;101185.38;;;21.45;100.00
71165;BME280;58859;55.132;-1.586;2023-07-09T04:22:39;101181.31;;;22.13;100.00
71165;BME280;58859;55.132;-1.586;2023-07-09T04:25:06;101188.53;;;21.86;100.00
71165;BME280;58859;55.132;-1.586;2023-07-09T04:27:32;101181.13;;;21.31;100.00
71165;BME280;58859;55.132;-1.586;2023-07-09T04:29:57;101187.59;;;20.62;100.00
71165;BME280;58859;55.132;-1.586;2023-07-09T04:32:23;101187.09;;;19.85;100.00
71165;BME280;58859;55.132;-1.586;2023-07-09T04:34:48;101188.13;;;19.91;100.00
71165;BME280;58859;55.132;-1.586;2023-07-09T04:37:14;101189.16;;;20.44;100.00
71165;BME280;58859;55.132;-1.586;2023-07-09T04:39:43;101184.94;;;19.68;100.00
71165;BME280;58859;55.132;-1.586;2023-07-09T04:42:13;101184.91;;;20.56;100.00
71165;BME280;58859;55.132;-1.586;2023-07-09T04:44:39;101189.19;;;20.50;100.00
71165;BME280;58859;55.132;-1.586;2023-07-09T04:47:05;101191.91;;;21.16;100.00
71165;BME280;58859;55.132;-1.586;2023-07-09T04:49:31;101193.47;;;21.63;100.00
71165;BME280;58859;55.132;-1.586;2023-07-09T04:51:56;101196.56;;;22.24;100.00
71165;BME280;58859;55.132;-1.586;2023-07-09T04:54:24;101201.53;;;22.45;100.00
71165;BME280;58859;55.132;-1.586;2023-07-09T04:56:49;101202.91;;;22.54;100.00
71165;BME280;58859;55.132;-1.586;2023-07-09T04:59:15;101198.81;;;21.50;100.00
71165;BME280;58859;55.132;-1.586;2023-07-09T05:01:41;101181.53;;;20.15;100.00
71165;BME280;58859;55.132;-1.586;2023-07-09T05:04:06;101178.28;;;21.26;100.00
71165;BME280;58859;55.132;-1.586;2023-07-09T05:06:32;101186.81;;;20.88;100.00
71165;BME280;58859;55.132;-1.586;2023-07-09T05:08:58;101186.44;;;19.77;100.00
71165;BME280;58859;55.132;-1.586;2023-07-09T05:11:23;101183.44;;;19.86;100.00
71165;BME280;58859;55.132;-1.586;2023-07-09T05:13:49;101179.38;;;20.31;100.00
71165;BME280;58859;55.132;-1.586;2023-07-09T05:16:14;101173.88;;;20.26;100.00
71165;BME280;58859;55.132;-1.586;2023-07-09T05:18:39;101171.78;;;21.28;100.00
71165;BME280;58859;55.132;-1.586;2023-07-09T05:21:05;101174.53;;;21.66;100.00
71165;BME280;58859;55.132;-1.586;2023-07-09T05:23:30;101181.50;;;22.18;100.00
71165;BME280;58859;55.132;-1.586;2023-07-09T05:25:59;101201.47;;;21.10;100.00
71165;BME280;58859;55.132;-1.586;2023-07-09T05:28:26;101193.72;;;20.83;100.00
71165;BME280;58859;55.132;-1.586;2023-07-09T05:30:52;101200.16;;;21.85;100.00
71165;BME280;58859;55.132;-1.586;2023-07-09T05:33:18;101212.63;;;20.86;100.00
71165;BME280;58859;55.132;-1.586;2023-07-09T05:35:44;101205.13;;;21.03;100.00
71165;BME280;58859;55.132;-1.586;2023-07-09T05:38:10;101200.16;;;21.92;100.00
71165;BME280;58859;55.132;-1.586;2023-07-09T05:40:36;101203.34;;;22.13;100.00
71165;BME280;58859;55.132;-1.586;2023-07-09T05:43:02;101212.72;;;22.03;100.00
71165;BME280;58859;55.132;-1.586;2023-07-09T05:45:27;101210.88;;;22.10;100.00
71165;BME280;58859;55.132;-1.586;2023-07-09T05:47:53;101223.78;;;21.93;100.00
71165;BME280;58859;55.132;-1.586;2023-07-09T05:50:18;101219.53;;;21.72;100.00
71165;BME280;58859;55.132;-1.586;2023-07-09T05:52:43;101214.94;;;22.19;100.00
71165;BME280;58859;55.132;-1.586;2023-07-09T05:55:09;101217.44;;;22.45;100.00
71165;BME280;58859;55.132;-1.586;2023-07-09T05:57:34;101223.47;;;22.27;100.00
71165;BME280;58859;55.132;-1.586;2023-07-09T06:00:00;101213.47;;;22.23;100.00
71165;BME280;58859;55.132;-1.586;2023-07-09T06:02:25;101225.66;;;22.75;100.00
71165;BME280;58859;55.132;-1.586;2023-07-09T06:04:51;101209.94;;;22.73;100.00
71165;BME280;58859;55.132;-1.586;2023-07-09T06:07:16;101205.13;;;22.95;100.00
71165;BME280;58859;55.132;-1.586;2023-07-09T06:09:44;101204.50;;;22.62;100.00
71165;BME280;58859;55.132;-1.586;2023-07-09T06:12:11;101200.75;;;23.07;100.00
71165;BME280;58859;55.132;-1.586;2023-07-09T06:14:36;101204.97;;;22.90;100.00
71165;BME280;58859;55.132;-1.586;2023-07-09T06:17:02;101214.81;;;21.81;100.00
71165;BME280;58859;55.132;-1.586;2023-07-09T06:19:27;101225.34;;;22.58;100.00
71165;BME280;58859;55.132;-1.586;2023-07-09T06:21:53;101227.03;;;22.84;100.00
71165;BME280;58859;55.132;-1.586;2023-07-09T06:24:18;101221.78;;;22.77;100.00
71165;BME280;58859;55.132;-1.586;2023-07-09T06:26:44;101234.81;;;22.34;100.00
71165;BME280;58859;55.132;-1.586;2023-07-09T06:29:09;101252.47;;;20.72;100.00
71165;BME280;58859;55.132;-1.586;2023-07-09T06:31:34;101242.13;;;21.82;100.00
71165;BME280;58859;55.132;-1.586;2023-07-09T06:34:01;101235.72;;;22.60;100.00
71165;BME280;58859;55.132;-1.586;2023-07-09T06:36:26;101235.72;;;22.60;100.00
71165;BME280;58859;55.132;-1.586;2023-07-09T06:38:52;101240.53;;;22.31;100.00
71165;BME280;58859;55.132;-1.586;2023-07-09T06:41:17;101245.78;;;21.81;100.00
71165;BME280;58859;55.132;-1.586;2023-07-09T06:43:43;101259.25;;;21.72;100.00
71165;BME280;58859;55.132;-1.586;2023-07-09T06:46:11;101268.88;;;21.34;100.00
71165;BME280;58859;55.132;-1.586;2023-07-09T06:48:37;101272.06;;;20.97;100.00
71165;BME280;58859;55.132;-1.586;2023-07-09T06:51:02;101269.34;;;22.21;100.00
71165;BME280;58859;55.132;-1.586;2023-07-09T06:53:28;101252.69;;;22.52;100.00
71165;BME280;58859;55.132;-1.586;2023-07-09T06:55:55;101259.88;;;21.35;100.00
71165;BME280;58859;55.132;-1.586;2023-07-09T06:58:23;101266.53;;;22.03;100.00
71165;BME280;58859;55.132;-1.586;2023-07-09T07:00:51;101275.81;;;20.61;100.00
71165;BME280;58859;55.132;-1.586;2023-07-09T07:03:17;101268.50;;;22.27;100.00
71165;BME280;58859;55.132;-1.586;2023-07-09T07:05:44;101272.09;;;21.56;100.00
71165;BME280;58859;55.132;-1.586;2023-07-09T07:08:10;101279.53;;;20.87;100.00
71165;BME280;58859;55.132;-1.586;2023-07-09T07:10:36;101273.91;;;21.75;100.00
71165;BME280;58859;55.132;-1.586;2023-07-09T07:13:01;101247.66;;;21.60;100.00
71165;BME280;58859;55.132;-1.586;2023-07-09T07:15:27;101255.56;;;21.93;100.00
71165;BME280;58859;55.132;-1.586;2023-07-09T07:17:52;101275.81;;;22.39;100.00
71165;BME280;58859;55.132;-1.586;2023-07-09T07:20:18;101275.25;;;22.74;100.00
71165;BME280;58859;55.132;-1.586;2023-07-09T07:22:43;101278.19;;;22.02;100.00
71165;BME280;58859;55.132;-1.586;2023-07-09T07:25:09;101276.72;;;22.06;100.00
71165;BME280;58859;55.132;-1.586;2023-07-09T07:27:36;101286.91;;;22.03;100.00
71165;BME280;58859;55.132;-1.586;2023-07-09T07:30:02;101277.81;;;22.43;100.00
71165;BME280;58859;55.132;-1.586;2023-07-09T07:32:28;101277.75;;;21.86;100.00
71165;BME280;58859;55.132;-1.586;2023-07-09T07:34:53;101274.47;;;22.16;100.00
71165;BME280;58859;55.132;-1.586;2023-07-09T07:37:20;101269.88;;;22.37;100.00
71165;BME280;58859;55.132;-1.586;2023-07-09T07:39:46;101265.69;;;22.60;100.00
71165;BME280;58859;55.132;-1.586;2023-07-09T07:42:12;101251.63;;;22.22;100.00
71165;BME280;58859;55.132;-1.586;2023-07-09T07:44:38;101251.50;;;21.77;100.00
71165;BME280;58859;55.132;-1.586;2023-07-09T07:47:04;101240.44;;;22.13;100.00
71165;BME280;58859;55.132;-1.586;2023-07-09T07:49:30;101268.81;;;21.80;100.00
71165;BME280;58859;55.132;-1.586;2023-07-09T07:51:56;101273.16;;;22.39;100.00
71165;BME280;58859;55.132;-1.586;2023-07-09T07:54:21;101271.59;;;22.18;100.00
71165;BME280;58859;55.132;-1.586;2023-07-09T07:56:47;101277.72;;;22.12;100.00
71165;BME280;58859;55.132;-1.586;2023-07-09T07:59:12;101278.19;;;21.69;100.00
71165;BME280;58859;55.132;-1.586;2023-07-09T08:01:38;101274.75;;;21.62;100.00
71165;BME280;58859;55.132;-1.586;2023-07-09T08:04:04;101276.38;;;21.24;100.00
71165;BME280;58859;55.132;-1.586;2023-07-09T08:06:30;101283.75;;;22.39;100.00
71165;BME280;58859;55.132;-1.586;2023-07-09T08:08:57;101283.13;;;22.37;100.00
71165;BME280;58859;55.132;-1.586;2023-07-09T08:11:23;101291.44;;;22.53;100.00
71165;BME280;58859;55.132;-1.586;2023-07-09T08:13:49;101296.09;;;22.07;100.00
71165;BME280;58859;55.132;-1.586;2023-07-09T08:16:14;101287.91;;;22.21;100.00
71165;BME280;58859;55.132;-1.586;2023-07-09T08:18:40;101303.00;;;22.14;100.00
71165;BME280;58859;55.132;-1.586;2023-07-09T08:21:05;101305.88;;;22.70;100.00
71165;BME280;58859;55.132;-1.586;2023-07-09T08:23:31;101301.25;;;22.90;100.00
71165;BME280;58859;55.132;-1.586;2023-07-09T08:25:58;101306.72;;;22.58;100.00
71165;BME280;58859;55.132;-1.586;2023-07-09T08:28:24;101298.03;;;23.13;100.00
71165;BME280;58859;55.132;-1.586;2023-07-09T08:30:54;101297.72;;;23.59;100.00
71165;BME280;58859;55.132;-1.586;2023-07-09T08:33:20;101293.47;;;21.87;100.00
71165;BME280;58859;55.132;-1.586;2023-07-09T08:35:48;101292.81;;;22.69;100.00
71165;BME280;58859;55.132;-1.586;2023-07-09T08:38:14;101283.03;;;22.56;100.00
71165;BME280;58859;55.132;-1.586;2023-07-09T08:40:40;101298.31;;;23.05;100.00
71165;BME280;58859;55.132;-1.586;2023-07-09T08:46:53;101312.22;;;23.38;100.00
71165;BME280;58859;55.132;-1.586;2023-07-09T08:48:56;101313.72;;;23.77;100.00
71165;BME280;58859;55.132;-1.586;2023-07-09T08:51:34;101319.03;;;23.95;100.00
71165;BME280;58859;55.132;-1.586;2023-07-09T08:54:02;101315.63;;;24.31;100.00
71165;BME280;58859;55.132;-1.586;2023-07-09T08:56:32;101316.59;;;24.37;100.00
71165;BME280;58859;55.132;-1.586;2023-07-09T08:59:00;101307.09;;;24.59;100.00
71165;BME280;58859;55.132;-1.586;2023-07-09T09:01:34;101303.13;;;24.50;100.00
71165;BME280;58859;55.132;-1.586;2023-07-09T09:04:11;101312.78;;;25.22;100.00
71165;BME280;58859;55.132;-1.586;2023-07-09T09:06:42;101311.53;;;24.47;100.00
71165;BME280;58859;55.132;-1.586;2023-07-09T09:09:39;101304.38;;;25.37;100.00
71165;BME280;58859;55.132;-1.586;2023-07-09T09:12:14;101309.41;;;25.68;100.00
71165;BME280;58859;55.132;-1.586;2023-07-09T09:14:49;101304.28;;;25.55;100.00
71165;BME280;58859;55.132;-1.586;2023-07-09T09:17:19;101306.22;;;25.36;100.00
71165;BME280;58859;55.132;-1.586;2023-07-09T09:19:56;101300.47;;;25.51;100.00
71165;BME280;58859;55.132;-1.586;2023-07-09T09:22:25;101298.63;;;25.10;100.00
71165;BME280;58859;55.132;-1.586;2023-07-09T09:27:24;101290.19;;;25.13;100.00
71165;BME280;58859;55.132;-1.586;2023-07-09T09:29:50;101293.25;;;25.28;100.00
71165;BME280;58859;55.132;-1.586;2023-07-09T09:34:43;101310.16;;;25.34;100.00
71165;BME280;58859;55.132;-1.586;2023-07-09T09:37:12;101308.59;;;25.26;100.00
71165;BME280;58859;55.132;-1.586;2023-07-09T09:39:38;101316.13;;;25.17;100.00
71165;BME280;58859;55.132;-1.586;2023-07-09T09:42:10;101325.72;;;25.48;100.00
71165;BME280;58859;55.132;-1.586;2023-07-09T09:44:42;101319.34;;;25.84;100.00
71165;BME280;58859;55.132;-1.586;2023-07-09T09:47:09;101327.00;;;25.92;100.00
71165;BME280;58859;55.132;-1.586;2023-07-09T09:49:39;101330.94;;;25.78;100.00
71165;BME280;58859;55.132;-1.586;2023-07-09T09:52:10;101334.97;;;25.04;100.00
71165;BME280;58859;55.132;-1.586;2023-07-09T09:54:40;101337.63;;;24.38;100.00
71165;BME280;58859;55.132;-1.586;2023-07-09T09:57:16;101335.38;;;24.90;100.00
71165;BME280;58859;55.132;-1.586;2023-07-09T09:59:42;101345.94;;;24.96;100.00
71165;BME280;58859;55.132;-1.586;2023-07-09T10:02:38;101354.78;;;25.50;100.00
71165;BME280;58859;55.132;-1.586;2023-07-09T10:05:11;101350.97;;;24.68;100.00
71165;BME280;58859;55.132;-1.586;2023-07-09T10:07:43;101335.91;;;24.62;100.00
71165;BME280;58859;55.132;-1.586;2023-07-09T10:10:14;101342.91;;;24.93;100.00
71165;BME280;58859;55.132;-1.586;2023-07-09T10:21:34;101338.13;;;24.11;100.00
71165;BME280;58859;55.132;-1.586;2023-07-09T10:27:29;101330.91;;;24.54;100.00
71165;BME280;58859;55.132;-1.586;2023-07-09T10:33:02;101344.13;;;25.08;100.00
71165;BME280;58859;55.132;-1.586;2023-07-09T10:38:25;101345.97;;;24.42;100.00
71165;BME280;58859;55.132;-1.586;2023-07-09T10:40:59;101332.88;;;24.58;100.00
71165;BME280;58859;55.132;-1.586;2023-07-09T10:43:35;101329.47;;;24.88;100.00
71165;BME280;58859;55.132;-1.586;2023-07-09T10:46:09;101341.91;;;24.57;100.00
71165;BME280;58859;55.132;-1.586;2023-07-09T10:48:43;101335.09;;;25.09;100.00
71165;BME280;58859;55.132;-1.586;2023-07-09T10:51:39;101317.50;;;25.50;100.00
71165;BME280;58859;55.132;-1.586;2023-07-09T10:54:28;101318.81;;;24.88;100.00
71165;BME280;58859;55.132;-1.586;2023-07-09T10:57:04;101319.72;;;24.82;100.00
71165;BME280;58859;55.132;-1.586;2023-07-09T10:59:32;101328.19;;;24.72;100.00
71165;BME280;58859;55.132;-1.586;2023-07-09T11:02:23;101332.91;;;24.22;100.00
71165;BME280;58859;55.132;-1.586;2023-07-09T11:04:56;101334.88;;;24.81;100.00
71165;BME280;58859;55.132;-1.586;2023-07-09T11:09:52;101337.19;;;24.41;100.00
71165;BME280;58859;55.132;-1.586;2023-07-09T11:15:22;101335.94;;;24.80;100.00
71165;BME280;58859;55.132;-1.586;2023-07-09T11:17:50;101343.63;;;24.34;100.00
71165;BME280;58859;55.132;-1.586;2023-07-09T11:20:24;101341.19;;;23.89;100.00
71165;BME280;58859;55.132;-1.586;2023-07-09T11:23:01;101338.94;;;23.37;100.00
71165;BME280;58859;55.132;-1.586;2023-07-09T11:28:05;101328.31;;;24.47;100.00
71165;BME280;58859;55.132;-1.586;2023-07-09T11:30:30;101338.91;;;23.68;100.00
71165;BME280;58859;55.132;-1.586;2023-07-09T11:32:58;101347.13;;;23.67;100.00
71165;BME280;58859;55.132;-1.586;2023-07-09T11:35:26;101338.63;;;24.74;100.00
71165;BME280;58859;55.132;-1.586;2023-07-09T11:37:53;101341.38;;;23.70;100.00
71165;BME280;58859;55.132;-1.586;2023-07-09T11:40:21;101357.63;;;23.80;100.00
71165;BME280;58859;55.132;-1.586;2023-07-09T11:42:55;101351.59;;;24.52;100.00
71165;BME280;58859;55.132;-1.586;2023-07-09T11:45:27;101343.81;;;24.69;100.00
71165;BME280;58859;55.132;-1.586;2023-07-09T11:50:46;101365.59;;;26.13;100.00
71165;BME280;58859;55.132;-1.586;2023-07-09T11:53:54;101360.59;;;24.51;100.00
71165;BME280;58859;55.132;-1.586;2023-07-09T11:56:13;101346.38;;;26.62;100.00
71165;BME280;58859;55.132;-1.586;2023-07-09T11:58:52;101357.59;;;25.90;100.00
71165;BME280;58859;55.132;-1.586;2023-07-09T12:01:22;101356.94;;;26.57;100.00
71165;BME280;58859;55.132;-1.586;2023-07-09T12:03:50;101350.84;;;25.11;100.00
71165;BME280;58859;55.132;-1.586;2023-07-09T12:06:42;101350.69;;;24.94;100.00
71165;BME280;58859;55.132;-1.586;2023-07-09T12:09:20;101359.34;;;24.53;100.00
71165;BME280;58859;55.132;-1.586;2023-07-09T12:11:48;101360.97;;;24.54;100.00
71165;BME280;58859;55.132;-1.586;2023-07-09T12:14:16;101362.81;;;24.90;100.00
71165;BME280;58859;55.132;-1.586;2023-07-09T12:16:45;101364.00;;;24.58;100.00
71165;BME280;58859;55.132;-1.586;2023-07-09T12:19:16;101362.81;;;24.36;100.00
71165;BME280;58859;55.132;-1.586;2023-07-09T12:21:44;101357.41;;;25.38;100.00
71165;BME280;58859;55.132;-1.586;2023-07-09T12:24:25;101360.47;;;24.46;100.00
71165;BME280;58859;55.132;-1.586;2023-07-09T12:26:56;101355.47;;;25.45;100.00
71165;BME280;58859;55.132;-1.586;2023-07-09T12:29:27;101358.16;;;24.68;100.00
71165;BME280;58859;55.132;-1.586;2023-07-09T12:31:56;101359.34;;;24.35;100.00
71165;BME280;58859;55.132;-1.586;2023-07-09T12:34:21;101351.41;;;25.43;100.00
71165;BME280;58859;55.132;-1.586;2023-07-09T12:36:49;101345.06;;;25.55;100.00
71165;BME280;58859;55.132;-1.586;2023-07-09T12:39:18;101345.75;;;25.86;100.00
71165;BME280;58859;55.132;-1.586;2023-07-09T12:41:45;101340.31;;;25.16;100.00
71165;BME280;58859;55.132;-1.586;2023-07-09T12:44:16;101344.16;;;24.72;100.00
71165;BME280;58859;55.132;-1.586;2023-07-09T12:46:42;101344.91;;;24.79;100.00
71165;BME280;58859;55.132;-1.586;2023-07-09T12:49:20;101331.31;;;25.17;100.00
71165;BME280;58859;55.132;-1.586;2023-07-09T12:51:46;101338.25;;;25.59;100.00
71165;BME280;58859;55.132;-1.586;2023-07-09T12:54:18;101337.09;;;25.79;100.00
71165;BME280;58859;55.132;-1.586;2023-07-09T12:56:45;101339.28;;;25.93;100.00
71165;BME280;58859;55.132;-1.586;2023-07-09T12:59:24;101337.38;;;26.40;100.00
71165;BME280;58859;55.132;-1.586;2023-07-09T13:01:54;101334.41;;;26.13;100.00
71165;BME280;58859;55.132;-1.586;2023-07-09T13:04:20;101333.16;;;25.93;100.00
71165;BME280;58859;55.132;-1.586;2023-07-09T13:06:45;101335.34;;;26.07;100.00
71165;BME280;58859;55.132;-1.586;2023-07-09T13:09:29;101328.38;;;26.06;100.00
71165;BME280;58859;55.132;-1.586;2023-07-09T13:11:56;101318.00;;;26.56;100.00
71165;BME280;58859;55.132;-1.586;2023-07-09T13:14:25;101321.16;;;26.42;100.00
71165;BME280;58859;55.132;-1.586;2023-07-09T13:16:51;101319.81;;;25.58;100.00